Map Display - EGHI to EGJJ
(last flight recorded 20-01-2020, 20:18 - Dale Moore)

Aircraft Weights    Units : Maximums
Passengers :   8  
Cargo : kg 178 kg
Suggested Fuel Load : kg 0 kg
 
     
 
Dry Operating : 1,330 kg    
Total Payload : 8,079 kg 916 kg
 
Take Off : 9,534 kg 2,494 kg
 
Expected Landing : 9,473 kg 2,494 kg

Joe Cusick,  DH89 ,  G-ACPR,  In Hangar.

Route Distance Previous
Flights
Average
Duration
Average
Fuel Flow
Average
Fuel Use
EGHI - Southampton Intl
EGJJ - Jersey
110 nm 7 01:06 54 kg/h 61 kg

Current weather :-
2016/03/02 12:00
TAF EGHI 021104Z 0212/0221 28015G25KT 9999 SCT020
TEMPO 0212/0221 29020G35KT PROB30
TEMPO 0212/0213 4000 SHRA BKN012CB
TEMPO 0218/0221 BKN014
 

Back to Virtual Airline